Time;durP1;ratioP1;P1;durP2;ratioP2;P2;SDS_P1;SDS_P2;PMS_P1;PMS_P2;Temp;Humidity;BMP_temperature;BMP_pressure;BME280_temperature;BME280_humidity;BME280_pressure;Samples;Min_cycle;Max_cycle;Signal;HPM_P1;HPM_P2
2022/07/20 00:00:10;;;;;;;7.47;6.73;;;;;;;23.54;54.96;66697.25;5134616;27;20183;-72
2022/07/20 00:02:36;;;;;;;6.73;6.47;;;;;;;23.54;54.28;66691.38;5134822;27;20237;-72
2022/07/20 00:05:04;;;;;;;7.43;6.97;;;;;;;23.55;54.25;66698.34;5134465;27;20208;-72
2022/07/20 00:07:31;;;;;;;7.50;7.33;;;;;;;23.58;54.04;66703.81;5134772;27;20241;-72
2022/07/20 00:12:43;;;;;;;6.70;6.60;;;;;;;23.57;53.73;66697.38;5134771;27;20176;-72
2022/07/20 00:15:09;;;;;;;6.60;6.50;;;;;;;23.54;52.89;66697.25;5134387;27;20685;-72
2022/07/20 00:17:36;;;;;;;6.57;6.37;;;;;;;23.55;53.09;66703.09;5134653;27;20241;-72
2022/07/20 00:20:03;;;;;;;6.60;6.30;;;;;;;23.56;52.78;66696.81;5134925;27;20674;-72
2022/07/20 00:22:30;;;;;;;7.53;7.33;;;;;;;23.56;52.55;66712.72;5134653;27;20182;-72
2022/07/20 00:24:56;;;;;;;6.60;6.37;;;;;;;23.59;51.54;66705.50;5134251;27;20613;-73
2022/07/20 00:27:22;;;;;;;6.63;6.30;;;;;;;;;;5134540;28;20685;-73
2022/07/20 00:29:49;;;;;;;7.43;7.13;;;;;;;23.58;51.06;66701.19;5134265;28;20541;-73
2022/07/20 00:32:15;;;;;;;7.30;6.40;;;;;;;;;;5134594;28;20188;-72
2022/07/20 00:34:42;;;;;;;6.70;6.43;;;;;;;23.59;50.03;66697.00;5134349;28;20208;-72
2022/07/20 00:37:08;;;;;;;7.30;6.67;;;;;;;23.61;50.21;66707.75;5134176;28;20184;-72
2022/07/20 00:39:35;;;;;;;7.27;6.87;;;;;;;23.60;49.62;66706.66;5134168;28;20177;-72
2022/07/20 00:42:02;;;;;;;7.43;7.13;;;;;;;23.60;49.90;66701.34;5134165;28;20233;-72
2022/07/20 00:44:28;;;;;;;6.73;6.23;;;;;;;23.62;50.19;66700.38;5134621;28;20215;-72
2022/07/20 00:46:55;;;;;;;6.97;6.33;;;;;;;23.59;50.27;66705.50;5134087;28;20188;-72
2022/07/20 00:49:22;;;;;;;7.40;6.80;;;;;;;23.57;50.24;66702.69;5136135;27;20606;-72
2022/07/20 00:51:49;;;;;;;7.17;6.87;;;;;;;23.51;50.24;66691.25;5138760;27;20639;-72
2022/07/20 00:54:16;;;;;;;7.10;7.00;;;;;;;23.52;50.10;66699.75;5138245;27;20208;-73
2022/07/20 00:56:42;;;;;;;7.07;6.50;;;;;;;23.53;49.76;66692.91;5138686;27;20213;-73
2022/07/20 00:59:10;;;;;;;7.07;6.90;;;;;;;23.53;49.58;66698.22;5138629;27;20221;-73
2022/07/20 01:01:37;;;;;;;6.53;6.33;;;;;;;23.52;49.38;66695.00;5138037;27;20200;-73
2022/07/20 01:04:04;;;;;;;7.17;6.97;;;;;;;23.53;49.50;66692.91;5138052;27;20697;-72
2022/07/20 01:06:30;;;;;;;6.30;6.20;;;;;;;23.55;49.26;66695.16;5138493;27;20567;-72
2022/07/20 01:08:57;;;;;;;6.57;6.47;;;;;;;23.56;49.46;66696.28;5137843;27;20200;-72
2022/07/20 01:11:24;;;;;;;7.07;6.97;;;;;;;23.53;49.37;66698.22;5137804;27;20188;-72
2022/07/20 01:13:50;;;;;;;6.83;6.73;;;;;;;23.52;49.08;66695.00;5138305;27;20208;-72
2022/07/20 01:16:17;;;;;;;7.13;6.83;;;;;;;23.57;48.49;66703.25;5138047;27;20181;-72
2022/07/20 01:18:44;;;;;;;7.10;6.50;;;;;;;23.54;48.06;66699.34;5137938;27;20188;-72
2022/07/20 01:21:11;;;;;;;7.27;6.97;;;;;;;23.58;48.22;66699.09;5137650;27;20192;-72
2022/07/20 01:23:37;;;;;;;7.77;7.03;;;;;;;23.57;48.69;66700.59;5138001;27;20316;-72
2022/07/20 01:26:04;;;;;;;7.77;7.07;;;;;;;23.58;48.43;66695.88;5137860;27;20703;-72
2022/07/20 01:28:31;;;;;;;7.83;6.67;;;;;;;23.56;47.49;66696.81;5137353;27;20188;-72
2022/07/20 01:30:57;;;;;;;7.47;6.63;;;;;;;23.59;47.73;66699.66;5137670;27;20276;-72
2022/07/20 01:33:24;;;;;;;7.00;6.70;;;;;;;23.57;47.26;66703.25;5137882;27;20213;-71
2022/07/20 01:35:50;;;;;;;6.63;6.40;;;;;;;23.69;46.89;66712.97;5137940;27;20188;-72
2022/07/20 01:38:17;;;;;;;7.53;6.93;;;;;;;;;;5137337;27;20241;-72
2022/07/20 01:40:43;;;;;;;6.90;6.60;;;;;;;23.73;46.68;66720.66;5137243;27;20193;-72
2022/07/20 01:43:10;;;;;;;11.20;7.10;;;;;;;23.72;47.19;66714.25;5137158;27;20185;-71
2022/07/20 01:45:36;;;;;;;6.87;6.60;;;;;;;23.74;46.58;66721.78;5137722;27;20192;-72
2022/07/20 01:48:03;;;;;;;6.77;6.57;;;;;;;23.73;46.46;66714.81;5137189;27;20569;-72
2022/07/20 01:50:29;;;;;;;7.17;6.97;;;;;;;23.74;46.44;66719.13;5118810;27;20200;-72
2022/07/20 01:52:56;;;;;;;7.30;6.73;;;;;;;23.77;45.93;66727.78;5137602;27;20581;-72
2022/07/20 01:55:22;;;;;;;7.77;7.33;;;;;;;23.71;46.63;66713.09;5136942;27;20696;-72
2022/07/20 01:57:49;;;;;;;7.20;6.83;;;;;;;23.70;46.94;66711.97;5136967;27;20189;-72
2022/07/20 02:00:15;;;;;;;7.00;6.73;;;;;;;23.58;47.47;66698.53;5136451;27;20185;-72
2022/07/20 02:02:47;;;;;;;9.07;7.00;;;;;;;23.58;46.95;66698.53;5137125;27;20187;-72
2022/07/20 02:05:14;;;;;;;6.07;5.97;;;;;;;23.55;47.02;66700.44;5136713;27;20212;-72
2022/07/20 02:07:41;;;;;;;7.27;6.77;;;;;;;23.57;46.40;66695.28;5136772;27;20188;-72
2022/07/20 02:10:10;;;;;;;6.50;6.30;;;;;;;23.53;47.25;66698.22;5136972;27;20226;-72
2022/07/20 02:12:37;;;;;;;8.87;6.27;;;;;;;23.49;47.54;66693.72;5136696;27;20189;-72
2022/07/20 02:15:06;;;;;;;7.40;6.87;;;;;;;23.43;47.52;66687.00;5136601;27;20269;-72
2022/07/20 02:17:33;;;;;;;7.07;6.60;;;;;;;23.40;47.91;66678.91;5137143;27;20184;-72
2022/07/20 02:19:59;;;;;;;6.77;6.57;;;;;;;23.40;47.00;66678.34;5136557;27;20608;-72
2022/07/20 02:22:27;;;;;;;7.17;6.53;;;;;;;23.41;47.19;66680.00;5136527;27;20703;-72
2022/07/20 02:24:53;;;;;;;7.10;6.73;;;;;;;23.35;47.55;66676.50;5136672;27;20608;-71
2022/07/20 02:27:20;;;;;;;6.57;6.47;;;;;;;23.30;47.91;66670.91;5136314;27;20196;-71
2022/07/20 02:29:47;;;;;;;7.20;7.00;;;;;;;23.25;48.45;66667.38;5136548;27;20208;-71
2022/07/20 02:32:13;;;;;;;7.20;6.90;;;;;;;23.20;48.32;66661.78;5136592;27;20196;-71
2022/07/20 02:34:40;;;;;;;7.30;6.80;;;;;;;23.09;48.23;66647.38;5136614;27;20625;-72
2022/07/20 02:37:06;;;;;;;7.10;6.57;;;;;;;23.06;48.07;66652.50;5136474;27;20654;-72
2022/07/20 02:39:33;;;;;;;6.57;6.20;;;;;;;23.12;48.75;66645.44;5136107;27;20662;-72
2022/07/20 02:42:00;;;;;;;6.47;6.27;;;;;;;23.09;48.23;66650.03;5136133;27;20242;-71
2022/07/20 02:44:26;;;;;;;7.17;6.53;;;;;;;23.14;48.69;66649.75;5135996;27;20204;-72
2022/07/20 02:46:54;;;;;;;6.93;6.73;;;;;;;23.10;48.55;66648.50;5136292;27;20578;-72
2022/07/20 02:49:20;;;;;;;6.43;6.40;;;;;;;23.05;48.67;66640.78;5135810;27;20188;-72
2022/07/20 02:51:47;;;;;;;6.23;6.00;;;;;;;23.01;49.71;66638.97;5135918;27;20654;-72
2022/07/20 02:54:13;;;;;;;6.83;6.63;;;;;;;22.96;50.14;66635.47;5135769;27;20217;-71
2022/07/20 02:56:40;;;;;;;6.73;6.53;;;;;;;22.93;50.02;66643.25;5136078;27;20217;-71
2022/07/20 02:59:06;;;;;;;7.50;7.00;;;;;;;22.91;50.79;66624.56;5136298;27;20181;-71
2022/07/20 03:01:33;;;;;;;6.53;6.43;;;;;;;22.85;51.50;66618.38;5135748;27;20264;-71
2022/07/20 03:04:06;;;;;;;6.37;6.17;;;;;;;22.80;51.39;66615.44;5136212;27;20215;-71
2022/07/20 03:06:32;;;;;;;6.93;6.77;;;;;;;22.77;51.56;66612.63;5135869;27;20180;-71
2022/07/20 03:08:59;;;;;;;7.13;6.93;;;;;;;22.73;51.72;66608.16;5136131;27;20308;-72
2022/07/20 03:11:25;;;;;;;7.20;6.80;;;;;;;22.66;51.88;66597.09;5134559;27;20234;-72
2022/07/20 03:13:51;;;;;;;6.60;6.33;;;;;;;22.54;52.90;66584.22;5135941;27;20209;-71
2022/07/20 03:16:18;;;;;;;6.97;6.87;;;;;;;22.37;53.21;66570.47;5135441;27;20237;-71
2022/07/20 03:18:45;;;;;;;8.10;7.87;;;;;;;22.23;53.99;66561.19;5135340;27;20267;-72
2022/07/20 03:21:12;;;;;;;6.03;5.93;;;;;;;22.14;54.70;66545.25;5135251;27;20184;-72
2022/07/20 03:23:38;;;;;;;7.37;6.77;;;;;;;22.00;54.70;66530.13;5135211;27;20230;-71
2022/07/20 03:26:05;;;;;;;7.13;6.63;;;;;;;21.95;55.25;66525.09;5135464;27;20648;-72
2022/07/20 03:28:31;;;;;;;7.03;6.60;;;;;;;21.95;55.32;66519.25;5135061;27;20651;-72
2022/07/20 03:30:57;;;;;;;7.77;7.47;;;;;;;21.94;54.64;66523.97;5135021;27;20682;-72
2022/07/20 03:33:24;;;;;;;6.70;6.40;;;;;;;21.97;54.15;66537.34;5134995;27;20211;-71
2022/07/20 03:35:50;;;;;;;6.93;6.40;;;;;;;21.98;54.27;66530.53;5135041;27;20189;-71
2022/07/20 03:38:17;;;;;;;7.23;6.73;;;;;;;21.92;54.04;66521.72;5135004;27;20189;-71
2022/07/20 03:40:43;;;;;;;6.37;6.37;;;;;;;21.96;53.62;66526.22;5135478;27;20642;-71
2022/07/20 03:43:10;;;;;;;7.10;6.80;;;;;;;22.00;53.85;66532.75;5134862;27;20193;-71
2022/07/20 03:45:36;;;;;;;6.90;6.80;;;;;;;22.02;54.46;66529.72;5134877;27;20184;-71
2022/07/20 03:48:03;;;;;;;6.47;6.37;;;;;;;22.03;54.25;66532.94;5134870;27;20185;-71
2022/07/20 03:50:30;;;;;;;7.53;7.13;;;;;;;22.04;55.35;66526.66;5135335;27;20253;-71
2022/07/20 03:52:56;;;;;;;7.40;7.10;;;;;;;21.99;55.56;66531.66;5134766;27;20253;-71
2022/07/20 03:55:23;;;;;;;7.73;7.10;;;;;;;21.88;55.17;66517.25;5134563;27;20694;-71
2022/07/20 03:57:50;;;;;;;8.63;7.70;;;;;;;21.26;55.57;66448.41;5134993;27;20241;-71
2022/07/20 04:00:17;;;;;;;8.03;7.27;;;;;;;21.19;55.48;66440.56;5134664;27;20185;-71
2022/07/20 04:02:43;;;;;;;7.87;7.57;;;;;;;21.16;56.09;66438.34;5134570;27;20353;-71
2022/07/20 04:05:10;;;;;;;7.23;7.03;;;;;;;21.10;56.69;66431.06;5134758;27;20204;-71
2022/07/20 04:07:36;;;;;;;7.30;6.83;;;;;;;21.01;57.79;66421.56;5134519;27;20249;-71
2022/07/20 04:10:03;;;;;;;8.20;7.57;;;;;;;21.03;57.75;66417.94;5134416;27;20196;-71
2022/07/20 04:12:30;;;;;;;7.57;7.13;;;;;;;21.00;57.33;66415.16;5134454;27;20233;-71
2022/07/20 04:14:56;;;;;;;6.70;6.50;;;;;;;21.03;57.71;66423.22;5134621;27;20212;-71
2022/07/20 04:17:23;;;;;;;8.03;7.43;;;;;;;20.95;59.24;66414.84;5115974;27;20192;-71
2022/07/20 04:19:50;;;;;;;8.97;8.30;;;;;;;20.94;59.11;66407.91;5134916;27;20188;-71
2022/07/20 04:22:16;;;;;;;7.60;7.13;;;;;;;20.87;60.28;66405.91;5134094;27;20241;-71
2022/07/20 04:24:43;;;;;;;7.47;7.17;;;;;;;20.83;60.29;66401.97;5134238;27;20249;-71
2022/07/20 04:27:09;;;;;;;8.87;7.20;;;;;;;20.88;60.31;66404.38;5134026;27;20245;-71
2022/07/20 04:29:36;;;;;;;7.63;7.40;;;;;;;20.88;61.01;66401.75;5134692;28;20181;-71
2022/07/20 04:32:03;;;;;;;8.57;7.70;;;;;;;20.88;60.10;66412.28;5134233;28;20595;-71
2022/07/20 04:34:29;;;;;;;8.50;7.67;;;;;;;20.91;59.30;66420.91;5134153;28;20567;-71
2022/07/20 04:36:56;;;;;;;7.43;6.90;;;;;;;20.95;59.24;66409.56;5134188;28;20233;-71
2022/07/20 04:39:23;;;;;;;7.00;6.90;;;;;;;20.94;60.06;66405.81;5134430;28;20196;-71
2022/07/20 04:41:49;;;;;;;7.07;6.77;;;;;;;20.98;61.23;66415.56;5134235;28;20241;-71
2022/07/20 04:44:16;;;;;;;7.27;7.07;;;;;;;21.05;61.55;66420.75;5134162;28;20204;-71
2022/07/20 04:46:42;;;;;;;6.90;6.77;;;;;;;21.09;61.79;66427.88;5134073;28;20188;-71
2022/07/20 04:49:09;;;;;;;7.27;6.93;;;;;;;21.19;61.96;66435.28;5134300;28;20281;-71
2022/07/20 04:51:36;;;;;;;7.63;7.03;;;;;;;21.28;61.91;66448.00;5134010;28;20204;-71
2022/07/20 04:54:03;;;;;;;7.37;7.20;;;;;;;21.29;61.12;66449.13;5133955;28;20253;-71
2022/07/20 04:56:29;;;;;;;7.27;7.17;;;;;;;21.34;60.25;66457.38;5133962;28;20189;-71
2022/07/20 04:58:56;;;;;;;8.13;6.90;;;;;;;21.36;61.92;66456.97;5133944;28;20192;-71
2022/07/20 05:01:23;;;;;;;7.27;6.73;;;;;;;21.44;61.36;66468.56;5133933;28;20189;-71
2022/07/20 05:03:51;;;;;;;7.50;6.93;;;;;;;21.52;61.58;66474.31;5134399;28;20213;-71
2022/07/20 05:06:18;;;;;;;7.53;7.23;;;;;;;21.54;61.40;66471.84;5133875;28;20213;-71
2022/07/20 05:08:45;;;;;;;7.60;7.07;;;;;;;21.60;61.64;66485.91;5133777;28;20185;-71
2022/07/20 05:11:12;;;;;;;8.17;7.67;;;;;;;21.71;62.27;66493.50;5133814;28;20566;-71
2022/07/20 05:13:39;;;;;;;7.67;7.10;;;;;;;21.72;62.51;66499.34;5134032;28;20205;-71
2022/07/20 05:16:06;;;;;;;7.90;7.37;;;;;;;21.80;63.22;66505.09;5133784;28;20542;-71
2022/07/20 05:18:33;;;;;;;17.57;7.30;;;;;;;21.83;62.79;66505.81;5133769;28;20184;-71
2022/07/20 05:21:00;;;;;;;6.40;6.27;;;;;;;21.94;64.03;66523.41;5134067;28;20229;-72
2022/07/20 05:23:27;;;;;;;7.60;7.03;;;;;;;22.02;65.42;66524.44;5133677;28;20218;-71
2022/07/20 05:25:53;;;;;;;7.00;6.80;;;;;;;22.12;64.91;66537.72;5133658;28;20264;-71
2022/07/20 05:28:20;;;;;;;7.47;7.17;;;;;;;22.27;64.43;66553.97;5133641;28;20217;-71
2022/07/20 05:30:50;;;;;;;7.63;7.23;;;;;;;22.34;61.68;66562.38;5133589;28;20216;-71
2022/07/20 05:33:17;;;;;;;8.27;7.70;;;;;;;22.97;54.53;66631.28;5133540;28;20199;-70
2022/07/20 05:35:44;;;;;;;8.17;7.43;;;;;;;23.43;53.03;66684.34;5135937;27;20181;-71
2022/07/20 05:38:11;;;;;;;8.40;7.10;;;;;;;23.78;51.00;66720.38;5137868;27;20193;-71
2022/07/20 05:40:38;;;;;;;7.43;6.97;;;;;;;24.17;49.03;66764.13;5137301;27;20520;-71
2022/07/20 05:43:04;;;;;;;8.70;6.97;;;;;;;24.32;47.10;66785.69;5137468;27;20195;-70
2022/07/20 05:45:31;;;;;;;7.20;6.77;;;;;;;24.49;45.86;66798.91;5137155;27;20180;-71
2022/07/20 05:47:57;;;;;;;6.80;6.50;;;;;;;24.65;45.42;66816.31;5137450;27;20188;-71
2022/07/20 05:50:24;;;;;;;8.80;6.70;;;;;;;24.73;45.88;66827.38;5136938;27;20211;-71
2022/07/20 05:52:50;;;;;;;12.57;7.47;;;;;;;24.78;45.74;66830.31;5137062;27;20193;-71
2022/07/20 05:55:17;;;;;;;14.77;6.87;;;;;;;24.86;45.61;66841.97;5136964;27;20261;-71
2022/07/20 05:57:44;;;;;;;9.20;8.30;;;;;;;24.95;45.44;66849.97;5136905;27;20210;-72
2022/07/20 06:00:11;;;;;;;12.43;8.57;;;;;;;24.96;46.85;66855.84;5136970;27;20184;-71
2022/07/20 06:02:38;;;;;;;23.03;9.47;;;;;;;25.01;47.32;66858.81;5137159;27;20658;-71
2022/07/20 06:05:05;;;;;;;10.73;9.97;;;;;;;24.92;48.82;66851.91;5136766;27;20287;-71
2022/07/20 06:07:31;;;;;;;23.53;12.67;;;;;;;24.82;49.43;66835.38;5137087;27;20280;-72
2022/07/20 06:09:58;;;;;;;18.40;11.53;;;;;;;24.74;50.25;66825.84;5137245;27;20233;-71
2022/07/20 06:12:24;;;;;;;15.93;12.57;;;;;;;24.71;50.53;66826.25;5136673;27;20225;-71
2022/07/20 06:14:51;;;;;;;14.63;12.40;;;;;;;24.76;50.82;66828.66;5136603;27;20205;-71
2022/07/20 06:17:17;;;;;;;15.60;14.03;;;;;;;24.73;51.76;66825.28;5137158;27;20185;-71
2022/07/20 06:19:44;;;;;;;18.13;14.10;;;;;;;24.65;53.13;66816.31;5136609;27;20183;-72
2022/07/20 06:22:10;;;;;;;24.17;14.43;;;;;;;;;;5136509;27;20193;-72
2022/07/20 06:24:36;;;;;;;18.80;16.87;;;;;;;24.75;55.31;66829.63;5136610;27;20209;-71
2022/07/20 06:27:21;;;;;;;27.47;17.80;;;;;;;24.71;56.02;66823.03;5136313;27;20553;-71
2022/07/20 06:29:47;;;;;;;23.30;18.70;;;;;;;24.60;57.12;66813.91;5136815;27;20638;-72
2022/07/20 06:32:14;;;;;;;24.20;17.50;;;;;;;24.66;57.43;66814.78;5136827;27;20216;-72
2022/07/20 06:34:42;;;;;;;25.33;18.47;;;;;;;24.75;57.11;66830.19;5136156;27;20247;-71
2022/07/20 06:37:08;;;;;;;29.43;19.23;;;;;;;24.76;57.63;66826.00;5136700;27;20611;-71
2022/07/20 06:39:35;;;;;;;32.50;19.33;;;;;;;24.79;58.53;66832.03;5136425;27;20654;-71
2022/07/20 06:42:01;;;;;;;24.77;20.77;;;;;;;24.82;57.84;66837.47;5136276;27;20234;-71
2022/07/20 06:44:28;;;;;;;33.63;19.87;;;;;;;24.92;58.37;66849.25;5135981;27;20580;-71
2022/07/20 06:46:54;;;;;;;29.33;19.67;;;;;;;24.84;58.49;66837.63;5135966;27;20278;-72
2022/07/20 06:49:24;;;;;;;34.33;19.67;;;;;;;24.90;59.11;66843.78;5136264;27;20176;-71
2022/07/20 06:51:51;;;;;;;27.60;21.93;;;;;;;24.91;59.75;66845.47;5136312;27;20208;-71
2022/07/20 06:54:18;;;;;;;30.57;21.30;;;;;;;24.96;59.47;66848.44;5135769;27;20200;-72
2022/07/20 06:56:44;;;;;;;32.23;20.97;;;;;;;25.05;60.02;66863.31;5136079;27;20189;-72
2022/07/20 06:59:11;;;;;;;28.10;21.10;;;;;;;25.09;59.41;66867.25;5135801;27;20184;-72
2022/07/20 07:01:38;;;;;;;30.70;22.57;;;;;;;25.11;58.57;66866.81;5135734;27;20308;-73
2022/07/20 07:04:04;;;;;;;34.63;22.40;;;;;;;25.03;59.39;66857.81;5135753;27;20218;-71
2022/07/20 07:06:33;;;;;;;28.63;22.53;;;;;;;25.09;59.50;66864.59;5135611;27;20191;-72
2022/07/20 07:09:00;;;;;;;30.67;22.70;;;;;;;25.05;59.58;66863.31;5135615;27;20196;-72
2022/07/20 07:11:27;;;;;;;29.80;22.67;;;;;;;25.06;59.10;66866.53;5135709;27;20674;-72
2022/07/20 07:13:53;;;;;;;33.83;22.00;;;;;;;;;;5135556;27;20257;-72
2022/07/20 07:16:20;;;;;;;31.93;21.67;;;;;;;25.06;59.12;66861.75;5136023;27;20161;-72
2022/07/20 07:18:47;;;;;;;45.20;22.30;;;;;;;25.11;59.07;66867.38;5135907;27;20253;-72
2022/07/20 07:21:17;;;;;;;30.63;22.17;;;;;;;25.25;59.37;66882.53;5135917;27;20175;-72
2022/07/20 07:23:49;;;;;;;34.00;19.70;;;;;;;25.29;59.42;66892.34;5135224;27;20739;-71
2022/07/20 07:26:16;;;;;;;32.50;22.20;;;;;;;;;;5135842;27;20173;-72
2022/07/20 07:28:43;;;;;;;35.90;22.33;;;;;;;25.36;59.58;66894.91;5135054;27;20184;-72
2022/07/20 07:31:10;;;;;;;28.93;22.60;;;;;;;25.40;59.61;66898.81;5135036;27;20204;-72
2022/07/20 07:33:37;;;;;;;39.37;21.37;;;;;;;25.48;59.09;66908.34;5134920;27;20615;-72
2022/07/20 07:36:05;;;;;;;44.20;21.67;;;;;;;25.56;59.63;66916.22;5135031;27;20249;-72
2022/07/20 07:38:32;;;;;;;28.97;21.83;;;;;;;25.64;59.16;66927.84;5134931;27;20229;-71
2022/07/20 07:40:59;;;;;;;25.70;21.70;;;;;;;25.57;58.99;66920.00;5135478;27;20703;-72
2022/07/20 07:43:25;;;;;;;29.43;23.67;;;;;;;25.64;59.94;66925.19;5135338;27;20200;-71
2022/07/20 07:45:52;;;;;;;38.90;22.30;;;;;;;25.71;59.04;66935.72;5134832;27;20245;-72
2022/07/20 07:48:18;;;;;;;24.90;22.20;;;;;;;25.86;59.76;66949.94;5135387;27;20578;-72
2022/07/20 07:50:45;;;;;;;30.83;22.53;;;;;;;26.01;57.90;66964.13;5134628;27;20272;-72
2022/07/20 07:53:12;;;;;;;25.80;22.43;;;;;;;25.88;57.28;66949.50;5134918;27;20242;-72
2022/07/20 07:55:40;;;;;;;33.00;22.57;;;;;;;26.04;57.97;66967.47;5134738;27;20180;-72
2022/07/20 07:58:08;;;;;;;38.67;21.90;;;;;;;26.16;56.24;66991.03;5134508;27;20611;-72
2022/07/20 08:00:35;;;;;;;35.03;22.90;;;;;;;;;;5135203;27;20245;-72
2022/07/20 08:03:03;;;;;;;31.33;23.17;;;;;;;26.24;54.83;66994.16;5116090;27;20217;-71
2022/07/20 08:05:30;;;;;;;30.13;21.33;;;;;;;26.24;54.06;66992.03;5134586;27;20586;-72
2022/07/20 08:07:57;;;;;;;31.40;23.77;;;;;;;;;;5135390;27;20566;-72
2022/07/20 08:10:23;;;;;;;28.73;22.37;;;;;;;26.55;53.35;67026.31;5134428;27;20189;-73
2022/07/20 08:12:56;;;;;;;27.00;23.53;;;;;;;;;;5134422;27;20164;-72
2022/07/20 08:15:22;;;;;;;29.20;23.17;;;;;;;26.67;52.44;67039.25;5134339;27;20200;-72
2022/07/20 08:17:48;;;;;;;38.00;24.77;;;;;;;26.72;52.25;67044.28;5134676;27;20226;-72
2022/07/20 08:20:21;;;;;;;26.83;22.83;;;;;;;26.62;52.38;67033.63;5134638;27;20189;-73
2022/07/20 08:22:49;;;;;;;28.33;22.97;;;;;;;26.47;52.47;67017.34;5134395;27;20182;-72
2022/07/20 08:25:15;;;;;;;29.10;22.30;;;;;;;26.33;53.28;67001.59;5134279;27;20234;-73
2022/07/20 08:27:42;;;;;;;33.80;24.33;;;;;;;26.41;52.42;67010.03;5131581;27;20196;-71
2022/07/20 08:30:09;;;;;;;26.80;23.60;;;;;;;26.57;52.46;67028.56;5110367;28;20230;-71
2022/07/20 08:32:56;;;;;;;25.50;22.87;;;;;;;26.92;52.66;67069.44;5107398;28;20233;-72
2022/07/20 08:35:22;;;;;;;26.87;23.87;;;;;;;26.82;50.94;67063.53;5103940;28;20616;-71
2022/07/20 08:37:49;;;;;;;31.33;23.52;;;;;;;26.92;51.87;67064.09;5113393;28;20197;-72
2022/07/20 08:40:16;;;;;;;34.03;23.13;;;;;;;26.80;51.52;67053.88;5119158;28;20189;-71
2022/07/20 08:42:43;;;;;;;41.87;23.97;;;;;;;26.80;52.80;67053.31;5110317;28;20222;-71
2022/07/20 08:45:10;;;;;;;31.83;24.00;;;;;;;26.88;51.39;67062.28;5111015;28;20577;-70
2022/07/20 08:47:39;;;;;;;32.03;24.27;;;;;;;26.87;51.68;67061.72;5113363;28;20196;-71
2022/07/20 08:50:06;;;;;;;27.53;23.53;;;;;;;26.98;51.59;67070.28;5128986;28;20541;-72
2022/07/20 08:52:33;;;;;;;38.07;24.80;;;;;;;26.95;51.74;67072.25;5133037;28;20677;-72
2022/07/20 08:55:00;;;;;;;32.43;23.20;;;;;;;27.00;51.81;67073.09;5116729;28;20231;-71
2022/07/20 08:57:26;;;;;;;27.60;24.35;;;;;;;26.99;51.86;67074.63;5119560;28;20267;-71
2022/07/20 08:59:53;;;;;;;26.77;22.45;;;;;;;27.04;51.53;67080.28;5115587;28;20188;-72
2022/07/20 09:02:20;;;;;;;26.48;23.60;;;;;;;27.28;51.04;67104.03;5129337;28;20189;-72
2022/07/20 09:04:53;;;;;;;27.95;23.80;;;;;;;27.06;51.04;67081.97;5134219;28;20197;-72
2022/07/20 09:07:46;;;;;;;28.73;23.15;;;;;;;27.19;51.95;67096.03;5122446;28;20518;-72
2022/07/20 09:10:17;;;;;;;34.13;23.10;;;;;;;27.10;51.27;67087.03;5114886;28;20238;-72
2022/07/20 09:12:48;;;;;;;32.80;23.40;;;;;;;27.14;50.98;67096.84;5122760;27;20211;-72
2022/07/20 09:15:26;;;;;;;43.42;24.38;;;;;;;27.09;50.54;67085.91;5114899;28;20205;-72
2022/07/20 09:18:11;;;;;;;26.23;22.10;;;;;;;27.26;50.73;67109.78;5113758;28;20600;-72
2022/07/20 09:20:44;;;;;;;36.13;23.50;;;;;;;27.26;49.85;67103.91;5115229;27;20237;-72
2022/07/20 09:23:19;;;;;;;27.58;22.23;;;;;;;27.47;50.21;67126.94;5136579;27;20662;-73
2022/07/20 09:25:59;;;;;;;24.98;22.27;;;;;;;27.54;51.18;67134.81;5129379;27;20190;-73
2022/07/20 09:28:38;;;;;;;29.02;22.25;;;;;;;27.53;49.58;67131.59;5115242;27;20924;-72
2022/07/20 09:31:14;;;;;;;44.38;24.13;;;;;;;27.47;50.42;67129.59;5135341;27;20615;-72
2022/07/20 09:33:54;;;;;;;27.25;21.38;;;;;;;27.62;49.30;67144.38;5116597;27;20215;-72
2022/07/20 09:36:23;;;;;;;21.98;19.30;;;;;;;27.71;48.58;67153.94;5120635;27;20185;-72
2022/07/20 09:38:50;;;;;;;24.17;20.98;;;;;;;27.61;48.43;67143.25;5119470;27;20588;-72
2022/07/20 09:41:24;;;;;;;26.73;21.42;;;;;;;27.69;48.39;67151.69;5128553;27;20220;-69
2022/07/20 09:43:51;;;;;;;23.13;20.50;;;;;;;27.87;48.40;67171.94;5137016;27;20220;-72
2022/07/20 09:46:23;;;;;;;23.15;19.80;;;;;;;28.21;48.33;67212.28;5132284;27;20192;-72
2022/07/20 09:48:53;;;;;;;24.27;20.17;;;;;;;28.07;47.44;67196.53;5105999;28;20204;-72
2022/07/20 09:51:33;;;;;;;20.88;18.75;;;;;;;27.95;47.19;67177.72;5121290;27;20207;-72
2022/07/20 09:54:03;;;;;;;20.42;18.65;;;;;;;28.13;48.20;67200.63;5118157;27;20211;-73
2022/07/20 09:56:30;;;;;;;19.00;17.15;;;;;;;28.14;46.97;67204.41;5134688;27;20196;-72
2022/07/20 09:58:59;;;;;;;22.80;18.42;;;;;;;28.04;48.05;67189.94;5137563;27;20188;-72
2022/07/20 10:01:28;;;;;;;19.45;17.15;;;;;;;28.08;46.65;67197.13;5123429;27;20184;-72
2022/07/20 10:03:57;;;;;;;19.33;17.65;;;;;;;28.12;46.95;67198.94;5132318;27;20212;-72
2022/07/20 10:06:25;;;;;;;20.27;18.30;;;;;;;28.28;46.94;67216.38;5124199;27;20550;-72
2022/07/20 10:08:59;;;;;;;29.85;17.63;;;;;;;;;;5133065;27;20241;-73
2022/07/20 10:11:25;;;;;;;16.50;14.98;;;;;;;28.41;45.87;67234.25;5126582;27;20254;-71
2022/07/20 10:13:54;;;;;;;16.08;14.75;;;;;;;28.49;46.47;67237.34;5131883;27;20211;-72
2022/07/20 10:16:28;;;;;;;33.30;19.60;;;;;;;28.54;46.69;67245.66;5130616;27;20196;-72
2022/07/20 10:18:56;;;;;;;19.85;17.83;;;;;;;28.65;46.47;67260.16;5113326;27;20271;-71
2022/07/20 10:21:47;;;;;;;21.13;18.98;;;;;;;28.77;46.43;67268.31;5112351;28;20643;-70
2022/07/20 10:24:30;;;;;;;21.15;18.92;;;;;;;28.78;46.04;67275.31;5114211;28;20201;-72
2022/07/20 10:27:03;;;;;;;17.65;15.98;;;;;;;28.89;45.72;67287.16;5114701;28;20567;-73
2022/07/20 10:29:34;;;;;;;17.45;15.60;;;;;;;28.74;45.15;67268.16;5115775;28;20185;-72
2022/07/20 10:32:11;;;;;;;17.02;14.77;;;;;;;28.68;44.86;67261.41;5116003;28;20655;-72
2022/07/20 10:34:50;;;;;;;15.75;14.65;;;;;;;28.70;45.28;67263.66;5115310;28;20212;-73
2022/07/20 10:37:29;;;;;;;14.15;13.13;;;;;;;28.61;44.92;67250.31;5111140;27;20192;-72
2022/07/20 10:40:14;;;;;;;15.60;12.90;;;;;;;28.78;44.25;67277.44;5135930;27;20185;-70
2022/07/20 10:42:42;;;;;;;25.38;15.40;;;;;;;;;;5096050;28;20567;-72
2022/07/20 10:45:19;;;;;;;21.77;16.10;;;;;;;28.89;45.38;67289.84;5095014;28;20209;-72
2022/07/20 10:47:54;;;;;;;16.00;14.45;;;;;;;28.83;45.53;67274.50;5123363;27;20192;-73
2022/07/20 10:50:21;;;;;;;16.70;15.18;;;;;;;28.67;46.36;67260.28;5127822;27;20188;-73
2022/07/20 10:52:49;;;;;;;17.00;14.73;;;;;;;28.71;46.53;67264.22;5135877;27;20257;-74
2022/07/20 10:55:34;;;;;;;18.98;14.55;;;;;;;28.64;47.03;67254.22;5125675;27;20216;-72
2022/07/20 10:58:29;;;;;;;20.98;14.80;;;;;;;28.73;46.49;67267.03;5135838;27;20602;-73
2022/07/20 11:01:07;;;;;;;16.08;14.63;;;;;;;28.67;46.99;67257.06;5120295;27;20680;-73
2022/07/20 11:03:37;;;;;;;16.65;15.30;;;;;;;28.54;47.23;67248.31;5115300;28;20212;-72
2022/07/20 11:06:08;;;;;;;15.65;14.02;;;;;;;28.51;46.95;67239.63;5115386;28;20230;-73
2022/07/20 11:09:01;;;;;;;14.48;13.15;;;;;;;28.61;47.65;67255.66;5116088;27;20195;-73
2022/07/20 11:11:35;;;;;;;15.02;13.70;;;;;;;28.55;47.15;67246.78;5133255;27;20669;-73
2022/07/20 11:14:05;;;;;;;15.05;12.23;;;;;;;28.77;46.62;67263.50;5117838;27;20205;-72
2022/07/20 11:16:34;;;;;;;12.82;11.93;;;;;;;28.49;46.13;67242.69;5126087;27;20611;-72
2022/07/20 11:19:02;;;;;;;13.05;11.85;;;;;;;28.41;46.22;67231.03;5125568;27;20597;-72
2022/07/20 11:21:31;;;;;;;13.50;12.43;;;;;;;28.57;46.24;67246.34;5114084;27;20193;-69
2022/07/20 11:24:02;;;;;;;13.15;12.18;;;;;;;28.70;46.07;67265.75;5121068;27;20577;-70
2022/07/20 11:26:29;;;;;;;14.07;12.80;;;;;;;28.56;48.08;67245.22;5129932;27;21432;-72
2022/07/20 11:28:57;;;;;;;16.45;12.45;;;;;;;;;;5135508;27;20177;-73
2022/07/20 11:31:29;;;;;;;14.95;13.85;;;;;;;28.63;47.53;67258.44;5126002;27;20607;-72
2022/07/20 11:33:57;;;;;;;15.40;13.27;;;;;;;28.56;47.83;67250.00;5112902;28;20249;-72
2022/07/20 11:36:26;;;;;;;13.68;12.43;;;;;;;;;;5114193;28;20193;-72
2022/07/20 11:38:59;;;;;;;13.80;12.90;;;;;;;28.70;47.44;67263.66;5114320;28;20238;-73